createdAt,value
2022-08-05T00:02:11.662Z,75.50
2022-08-05T00:04:40.374Z,75.35
2022-08-05T00:07:27.206Z,74.65
2022-08-05T00:09:58.717Z,74.84
2022-08-05T00:12:26.726Z,74.60
2022-08-05T00:14:54.676Z,74.72
2022-08-05T00:17:23.602Z,74.44
2022-08-05T00:20:01.816Z,74.30
2022-08-05T00:22:32.035Z,74.07
2022-08-05T00:25:02.979Z,73.90
2022-08-05T00:27:36.730Z,73.79
2022-08-05T00:30:11.705Z,73.11
2022-08-05T00:32:40.646Z,73.68
2022-08-05T00:35:09.448Z,73.34
2022-08-05T00:37:53.454Z,74.01
2022-08-05T00:40:28.308Z,74.10
2022-08-05T00:43:07.703Z,74.47
2022-08-05T00:45:38.619Z,73.73
2022-08-05T00:48:18.831Z,73.97
2022-08-05T00:50:59.468Z,73.25
2022-08-05T00:53:44.981Z,73.49
2022-08-05T00:56:22.703Z,73.16
2022-08-05T00:58:52.087Z,72.58
2022-08-05T01:01:42.091Z,72.23
2022-08-05T01:04:13.638Z,72.27
2022-08-05T01:06:43.744Z,72.56
2022-08-05T01:09:19.978Z,71.99
2022-08-05T01:11:51.916Z,71.56
2022-08-05T01:14:42.783Z,71.59
2022-08-05T01:17:15.172Z,71.05
2022-08-05T01:20:01.915Z,71.03
2022-08-05T01:23:14.339Z,70.75
2022-08-05T01:26:07.413Z,70.36
2022-08-05T01:29:05.026Z,70.35
2022-08-05T01:31:55.899Z,70.10
2022-08-05T01:34:37.198Z,69.82
2022-08-05T01:37:18.092Z,69.34
2022-08-05T01:39:59.031Z,68.75
2022-08-05T01:42:30.160Z,68.49
2022-08-05T01:45:02.420Z,68.33
2022-08-05T01:47:39.596Z,67.72
2022-08-05T01:50:28.758Z,67.50
2022-08-05T01:53:02.202Z,66.80
2022-08-05T01:55:36.091Z,66.73
2022-08-05T01:58:15.802Z,66.67
2022-08-05T02:00:53.259Z,66.46
2022-08-05T02:03:31.920Z,66.21
2022-08-05T02:06:37.441Z,65.97
2022-08-05T02:08:57.935Z,65.45
2022-08-05T02:11:59.650Z,65.31
2022-08-05T02:14:41.291Z,65.15
2022-08-05T02:18:27.583Z,65.19
2022-08-05T02:20:22.623Z,64.51
2022-08-05T02:23:06.363Z,63.51
2022-08-05T02:25:49.253Z,63.43
2022-08-05T02:28:29.083Z,63.17
2022-08-05T02:31:04.110Z,63.07
2022-08-05T02:33:39.886Z,62.50
2022-08-05T02:36:15.597Z,62.28
2022-08-05T02:38:53.613Z,61.65
2022-08-05T02:41:28.307Z,61.00
2022-08-05T02:44:13.142Z,61.00
2022-08-05T02:46:59.810Z,60.85
2022-08-05T02:49:37.143Z,61.14
2022-08-05T02:52:25.915Z,60.80
2022-08-05T02:55:05.622Z,60.28
2022-08-05T02:58:19.843Z,60.03
2022-08-05T03:00:30.120Z,59.82
2022-08-05T03:02:59.552Z,59.86
2022-08-05T03:06:57.245Z,59.36
2022-08-05T03:08:26.949Z,59.05
2022-08-05T03:11:01.122Z,58.89
2022-08-05T03:14:03.063Z,58.53
2022-08-05T03:16:31.863Z,58.33
2022-08-05T03:19:16.919Z,58.56
2022-08-05T03:21:48.783Z,58.22
2022-08-05T03:24:27.550Z,58.01
2022-08-05T03:26:59.768Z,57.10
2022-08-05T03:29:44.718Z,56.73
2022-08-05T03:32:17.066Z,56.14
2022-08-05T03:34:51.145Z,55.33
2022-08-05T03:37:22.624Z,55.60
2022-08-05T03:40:01.859Z,55.67
2022-08-05T03:42:41.603Z,55.46
2022-08-05T03:45:23.685Z,54.81
2022-08-05T03:47:57.155Z,54.57
2022-08-05T03:50:37.336Z,54.39
2022-08-05T03:55:50.339Z,53.98
2022-08-05T03:56:44.142Z,53.42
2022-08-05T03:59:47.000Z,54.07
2022-08-05T04:02:38.257Z,53.79
2022-08-05T04:05:14.482Z,53.09
2022-08-05T04:07:57.144Z,53.30
2022-08-05T04:10:37.604Z,52.83
2022-08-05T04:13:08.885Z,52.10
2022-08-05T04:16:02.889Z,51.43
2022-08-05T04:18:29.611Z,51.31
2022-08-05T04:20:58.747Z,51.11
2022-08-05T04:24:05.200Z,50.52
2022-08-05T04:26:17.381Z,50.98
2022-08-05T04:28:50.849Z,51.16
2022-08-05T04:31:39.949Z,51.15
2022-08-05T04:34:31.783Z,50.72
2022-08-05T04:36:56.518Z,49.90
2022-08-05T04:39:24.897Z,49.55
2022-08-05T04:41:56.124Z,49.48
2022-08-05T04:44:30.282Z,49.48
2022-08-05T04:46:59.875Z,49.19
2022-08-05T04:50:01.574Z,48.53
2022-08-05T04:52:27.704Z,48.54
2022-08-05T04:54:57.803Z,48.30
2022-08-05T04:57:29.016Z,48.53
2022-08-05T05:00:00.074Z,48.46
2022-08-05T05:02:36.230Z,47.54
2022-08-05T05:05:16.483Z,46.91
2022-08-05T05:08:01.840Z,46.68
2022-08-05T05:10:39.427Z,46.13
2022-08-05T05:13:18.256Z,46.19
2022-08-05T05:15:56.494Z,45.68
2022-08-05T05:18:34.176Z,46.44
2022-08-05T05:21:04.284Z,45.90
2022-08-05T05:24:03.009Z,45.45
2022-08-05T05:26:33.119Z,45.63
2022-08-05T05:29:02.302Z,44.99
2022-08-05T05:34:02.613Z,44.84
2022-08-05T05:36:32.991Z,44.87
2022-08-05T05:39:05.616Z,45.03
2022-08-05T05:41:40.696Z,45.10
2022-08-05T05:44:35.980Z,45.48
2022-08-05T05:47:04.314Z,45.74
2022-08-05T05:49:41.371Z,46.33
2022-08-05T05:52:13.069Z,46.14
2022-08-05T05:54:56.437Z,45.02
2022-08-05T05:57:26.946Z,45.03
2022-08-05T06:00:14.573Z,44.55
2022-08-05T06:02:44.371Z,44.68
2022-08-05T06:05:16.643Z,45.06
2022-08-05T06:07:57.933Z,44.72
2022-08-05T06:10:36.357Z,44.72
2022-08-05T06:13:07.455Z,43.68
2022-08-05T06:16:28.517Z,43.53
2022-08-05T06:18:31.051Z,44.04
2022-08-05T06:21:00.518Z,44.27
2022-08-05T06:23:43.664Z,44.86
2022-08-05T06:26:21.250Z,44.64
2022-08-05T06:28:52.294Z,44.42
2022-08-05T06:31:22.073Z,43.55
2022-08-05T06:34:07.716Z,43.55
2022-08-05T06:36:57.523Z,44.43
2022-08-05T06:39:28.199Z,43.99
2022-08-05T06:42:06.083Z,43.81
2022-08-05T06:44:34.226Z,43.55
2022-08-05T06:47:02.472Z,43.34
2022-08-05T06:50:00.025Z,43.75
2022-08-05T06:52:37.088Z,42.61
2022-08-05T06:55:08.097Z,43.28
2022-08-05T06:58:02.558Z,43.79
2022-08-05T07:00:25.790Z,43.17
2022-08-05T07:02:54.418Z,42.91
2022-08-05T07:05:36.869Z,43.33
2022-08-05T07:08:06.162Z,42.61
2022-08-05T07:10:52.373Z,42.65
2022-08-05T07:13:59.228Z,42.71
2022-08-05T07:17:56.618Z,42.64
2022-08-05T07:22:31.512Z,43.25
2022-08-05T07:25:22.995Z,43.07
2022-08-05T07:27:58.399Z,42.72
2022-08-05T07:30:39.767Z,42.63
2022-08-05T07:33:16.403Z,43.50
2022-08-05T07:36:01.624Z,43.24
2022-08-05T07:38:43.259Z,42.53
2022-08-05T07:42:08.806Z,42.15
2022-08-05T07:44:18.564Z,41.41
2022-08-05T07:46:50.107Z,41.30
2022-08-05T07:49:20.421Z,41.80
2022-08-05T07:51:54.255Z,41.70
2022-08-05T07:54:31.373Z,43.25
2022-08-05T07:57:22.860Z,43.62
2022-08-05T07:59:52.369Z,43.48
2022-08-05T08:02:30.967Z,43.94
2022-08-05T08:05:15.195Z,43.61
2022-08-05T08:07:59.784Z,43.94
2022-08-05T08:10:30.327Z,43.64
2022-08-05T08:13:01.613Z,43.14
2022-08-05T08:16:33.421Z,42.36
2022-08-05T08:18:20.800Z,42.27
2022-08-05T08:21:02.390Z,41.82
2022-08-05T08:24:02.531Z,41.59
2022-08-05T08:26:26.962Z,41.85
2022-08-05T08:29:09.771Z,41.97
2022-08-05T08:31:48.558Z,41.44
2022-08-05T08:34:29.856Z,41.25
2022-08-05T08:37:03.229Z,41.31
2022-08-05T08:39:37.607Z,41.84
2022-08-05T08:42:10.767Z,42.62
2022-08-05T08:45:17.974Z,44.16
2022-08-05T08:48:12.590Z,45.01
2022-08-05T08:51:21.967Z,44.96
2022-08-05T08:53:40.217Z,44.19
2022-08-05T08:56:14.222Z,42.83
2022-08-05T08:58:47.893Z,42.76
2022-08-05T09:01:19.677Z,43.15
2022-08-05T09:03:54.373Z,43.17
2022-08-05T09:06:29.684Z,44.15
2022-08-05T09:09:03.516Z,45.45
2022-08-05T09:11:53.108Z,46.20
2022-08-05T09:14:56.938Z,45.64
2022-08-05T09:17:42.985Z,44.66
2022-08-05T09:20:08.582Z,43.81
2022-08-05T09:23:07.960Z,43.87
2022-08-05T09:26:01.558Z,44.15
2022-08-05T09:28:34.480Z,43.69
2022-08-05T09:31:43.443Z,42.96
2022-08-05T09:34:00.147Z,42.77
2022-08-05T09:36:54.475Z,43.06
2022-08-05T09:39:39.518Z,43.24
2022-08-05T09:42:24.208Z,43.83
2022-08-05T09:45:03.393Z,43.62
2022-08-05T09:47:55.372Z,44.11
2022-08-05T09:50:44.427Z,44.18
2022-08-05T09:53:23.160Z,42.97
2022-08-05T09:56:03.917Z,42.21
2022-08-05T09:58:33.499Z,42.57
2022-08-05T10:01:15.310Z,42.65
2022-08-05T10:04:02.258Z,42.91
2022-08-05T10:06:32.807Z,42.88
2022-08-05T10:09:27.713Z,42.82
2022-08-05T10:12:18.825Z,43.30
2022-08-05T10:15:20.383Z,42.56
2022-08-05T10:18:06.408Z,42.22
2022-08-05T10:20:48.392Z,42.58
2022-08-05T10:23:56.113Z,42.70
2022-08-05T10:26:32.312Z,42.33
2022-08-05T10:29:00.853Z,42.69
2022-08-05T10:32:52.142Z,43.16
2022-08-05T10:34:18.424Z,43.55
2022-08-05T10:36:54.155Z,43.51
2022-08-05T10:40:04.119Z,44.85
2022-08-05T10:42:33.854Z,45.82
2022-08-05T10:45:20.879Z,46.17
2022-08-05T10:48:30.158Z,45.15
2022-08-05T10:51:22.437Z,43.92
2022-08-05T10:53:55.815Z,44.14
2022-08-05T10:56:28.665Z,43.94
2022-08-05T10:59:07.120Z,43.88
2022-08-05T11:01:54.487Z,44.17
2022-08-05T11:04:31.190Z,43.70
2022-08-05T11:07:07.905Z,43.95
2022-08-05T11:10:10.083Z,45.67
2022-08-05T11:12:54.361Z,45.88
2022-08-05T11:15:59.582Z,46.05
2022-08-05T11:18:32.590Z,47.03
2022-08-05T11:21:11.176Z,46.53
2022-08-05T11:24:05.689Z,45.24
2022-08-05T11:26:53.515Z,44.50
2022-08-05T11:29:43.397Z,42.81
2022-08-05T11:32:29.712Z,42.43
2022-08-05T11:34:59.564Z,42.78
2022-08-05T11:38:26.447Z,42.90
2022-08-05T11:42:01.648Z,44.20
2022-08-05T11:44:52.791Z,45.05
2022-08-05T11:47:48.220Z,44.67
2022-08-05T11:50:18.333Z,43.57
2022-08-05T11:52:53.107Z,43.43
2022-08-05T11:55:58.812Z,44.58
2022-08-05T11:58:40.589Z,45.85
2022-08-05T12:01:11.219Z,46.23
2022-08-05T12:03:44.694Z,46.23
2022-08-05T12:06:30.531Z,45.61
2022-08-05T12:08:59.961Z,46.01
2022-08-05T12:11:39.725Z,47.13
2022-08-05T12:14:12.480Z,47.26
2022-08-05T12:16:50.950Z,48.14
2022-08-05T12:20:16.745Z,47.22
2022-08-05T12:22:13.382Z,46.79
2022-08-05T12:24:57.592Z,46.07
2022-08-05T12:27:33.383Z,44.96
2022-08-05T12:30:05.541Z,44.97
2022-08-05T12:32:35.989Z,45.79
2022-08-05T12:35:08.712Z,46.92
2022-08-05T12:37:38.063Z,47.86
2022-08-05T12:40:11.306Z,46.71
2022-08-05T12:42:56.915Z,47.52
2022-08-05T12:45:48.336Z,48.66
2022-08-05T12:48:32.509Z,50.27
2022-08-05T12:52:11.158Z,51.71
2022-08-05T12:54:03.651Z,51.70
2022-08-05T12:56:35.430Z,51.81
2022-08-05T13:00:08.265Z,52.14
2022-08-05T13:02:30.557Z,51.84
2022-08-05T13:04:59.195Z,52.03
2022-08-05T13:07:57.453Z,52.77
2022-08-05T13:10:21.481Z,53.56
2022-08-05T13:12:51.322Z,53.78
2022-08-05T13:15:41.414Z,54.10
2022-08-05T13:18:19.786Z,53.90
2022-08-05T13:20:50.261Z,53.61
2022-08-05T13:23:22.770Z,53.50
2022-08-05T13:25:59.468Z,53.43
2022-08-05T13:28:32.261Z,53.23
2022-08-05T13:31:11.112Z,53.22
2022-08-05T13:34:21.627Z,53.58
2022-08-05T13:36:32.360Z,54.13
2022-08-05T13:39:02.931Z,54.68
2022-08-05T13:41:51.844Z,55.04
2022-08-05T13:44:30.564Z,55.28
2022-08-05T13:47:02.382Z,56.02
2022-08-05T13:49:35.312Z,56.72
2022-08-05T13:52:13.318Z,57.22
2022-08-05T13:54:42.194Z,57.44
2022-08-05T13:57:11.747Z,57.71
2022-08-05T14:02:49.211Z,58.18
2022-08-05T14:05:29.158Z,58.76
2022-08-05T14:08:05.918Z,59.02
2022-08-05T14:10:47.299Z,59.77
2022-08-05T14:16:11.430Z,60.17
2022-08-05T14:18:40.054Z,60.34
2022-08-05T14:22:07.751Z,61.02
2022-08-05T14:24:00.675Z,61.51
2022-08-05T14:26:35.589Z,61.84
2022-08-05T14:29:18.266Z,62.59
2022-08-05T14:32:27.177Z,62.79
2022-08-05T14:34:56.711Z,63.00
2022-08-05T14:37:45.574Z,63.31
2022-08-05T14:40:16.924Z,63.78
2022-08-05T14:42:46.122Z,63.89
2022-08-05T14:45:17.311Z,64.46
2022-08-05T14:48:05.295Z,64.62
2022-08-05T14:50:39.905Z,64.94
2022-08-05T14:53:09.604Z,65.30
2022-08-05T14:55:39.108Z,65.34
2022-08-05T14:58:12.134Z,65.61
2022-08-05T15:00:58.868Z,65.68
2022-08-05T15:03:34.149Z,65.85
2022-08-05T15:06:14.856Z,66.17
2022-08-05T15:09:01.562Z,66.45
2022-08-05T15:11:52.674Z,66.72
2022-08-05T15:14:34.837Z,66.93
2022-08-05T15:17:44.422Z,67.04
2022-08-05T15:20:00.220Z,67.08
2022-08-05T15:22:28.713Z,67.36
2022-08-05T15:25:13.713Z,67.15
2022-08-05T15:27:52.112Z,67.15
2022-08-05T15:30:22.267Z,67.72
2022-08-05T15:32:50.755Z,68.06
2022-08-05T15:35:19.076Z,68.28
2022-08-05T15:38:33.494Z,68.70
2022-08-05T15:41:01.609Z,68.47
2022-08-05T15:43:28.349Z,68.47
2022-08-05T15:46:00.347Z,68.77
2022-08-05T15:48:30.908Z,69.05
2022-08-05T15:50:59.163Z,69.10
2022-08-05T15:53:38.589Z,69.26
2022-08-05T15:56:21.358Z,69.12
2022-08-05T15:58:49.916Z,69.61
2022-08-05T16:01:19.477Z,69.79
2022-08-05T16:03:50.438Z,69.68
2022-08-05T16:06:22.928Z,69.72
2022-08-05T16:08:53.776Z,70.35
2022-08-05T16:11:42.545Z,70.20
2022-08-05T16:14:17.518Z,70.49
2022-08-05T16:16:49.272Z,70.65
2022-08-05T16:19:25.296Z,70.80
2022-08-05T16:22:10.698Z,71.01
2022-08-05T16:24:51.605Z,70.98
2022-08-05T16:27:46.923Z,71.30
2022-08-05T16:30:29.067Z,71.23
2022-08-05T16:32:59.132Z,71.57
2022-08-05T16:35:33.699Z,71.32
2022-08-05T16:38:18.834Z,71.51
2022-08-05T16:41:00.088Z,71.36
2022-08-05T16:43:32.417Z,71.55
2022-08-05T16:46:12.875Z,71.63
2022-08-05T16:48:51.281Z,72.06
2022-08-05T16:51:19.506Z,71.84
2022-08-05T16:54:06.229Z,72.23
2022-08-05T16:56:37.544Z,72.29
2022-08-05T16:59:11.925Z,72.01
2022-08-05T17:01:53.650Z,72.09
2022-08-05T17:04:28.490Z,72.15
2022-08-05T17:07:01.596Z,71.99
2022-08-05T17:09:38.887Z,72.11
2022-08-05T17:12:22.769Z,72.10
2022-08-05T17:15:15.780Z,72.69
2022-08-05T17:17:54.424Z,72.90
2022-08-05T17:20:25.227Z,73.46
2022-08-05T17:22:55.777Z,73.76
2022-08-05T17:25:34.086Z,73.68
2022-08-05T17:28:09.295Z,73.59
2022-08-05T17:30:50.724Z,73.40
2022-08-05T17:33:21.234Z,73.51
2022-08-05T17:36:08.111Z,73.83
2022-08-05T17:38:39.887Z,73.64
2022-08-05T17:41:11.724Z,73.68
2022-08-05T17:43:57.449Z,73.41
2022-08-05T17:46:27.006Z,73.52
2022-08-05T17:48:55.946Z,73.32
2022-08-05T17:51:26.059Z,73.59
2022-08-05T17:53:54.953Z,73.76
2022-08-05T17:56:28.454Z,73.70
2022-08-05T17:58:57.059Z,73.70
2022-08-05T18:01:25.180Z,74.01
2022-08-05T18:04:04.742Z,74.29
2022-08-05T18:06:36.150Z,73.81
2022-08-05T18:09:04.078Z,74.25
2022-08-05T18:11:37.622Z,73.87
2022-08-05T18:14:13.617Z,73.67
2022-08-05T18:16:52.030Z,73.73
2022-08-05T18:19:22.806Z,74.36
2022-08-05T18:22:08.673Z,74.61
2022-08-05T18:24:39.463Z,74.87
2022-08-05T18:27:12.571Z,74.41
2022-08-05T18:29:53.654Z,74.35
2022-08-05T18:32:27.957Z,74.68
2022-08-05T18:34:58.493Z,74.63
2022-08-05T18:37:34.321Z,74.77
2022-08-05T18:40:33.906Z,75.00
2022-08-05T18:43:00.123Z,74.57
2022-08-05T18:45:41.837Z,74.78
2022-08-05T18:48:17.405Z,75.25
2022-08-05T18:52:05.768Z,74.90
2022-08-05T18:54:06.411Z,75.03
2022-08-05T18:56:38.098Z,74.59
2022-08-05T18:59:44.254Z,74.58
2022-08-05T19:01:58.156Z,74.73
2022-08-05T19:04:28.207Z,74.71
2022-08-05T19:06:56.182Z,74.88
2022-08-05T19:09:24.249Z,75.13
2022-08-05T19:12:00.726Z,74.85
2022-08-05T19:14:59.136Z,75.17
2022-08-05T19:17:20.560Z,75.00
2022-08-05T19:19:50.711Z,75.28
2022-08-05T19:22:22.863Z,75.39
2022-08-05T19:25:02.649Z,75.41
2022-08-05T19:27:31.773Z,75.70
2022-08-05T19:29:59.901Z,75.93
2022-08-05T19:32:28.284Z,75.68
2022-08-05T19:34:59.875Z,75.96
2022-08-05T19:37:47.365Z,75.88
2022-08-05T19:40:24.467Z,76.26
2022-08-05T19:43:00.958Z,75.82
2022-08-05T19:45:36.761Z,76.03
2022-08-05T19:48:06.039Z,76.43
2022-08-05T19:50:35.666Z,76.25
2022-08-05T19:53:09.502Z,76.41
2022-08-05T19:56:13.728Z,76.46
2022-08-05T19:58:29.299Z,76.72
2022-08-05T20:01:02.069Z,76.60
2022-08-05T20:03:38.684Z,76.70
2022-08-05T20:06:14.815Z,76.86
2022-08-05T20:08:47.192Z,76.54
2022-08-05T20:11:18.039Z,76.28
2022-08-05T20:13:58.292Z,76.63
2022-08-05T20:16:37.981Z,76.59
2022-08-05T20:19:06.313Z,76.47
2022-08-05T20:21:34.963Z,76.68
2022-08-05T20:24:07.199Z,76.37
2022-08-05T20:26:40.041Z,76.29
2022-08-05T20:29:26.885Z,76.43
2022-08-05T20:31:58.247Z,76.84
2022-08-05T20:34:27.979Z,76.48
2022-08-05T20:36:55.982Z,76.50
2022-08-05T20:39:24.041Z,76.71
2022-08-05T20:41:53.203Z,76.49
2022-08-05T20:44:30.282Z,76.76
2022-08-05T20:47:02.185Z,76.50
2022-08-05T20:49:37.844Z,76.71
2022-08-05T20:52:08.243Z,76.59
2022-08-05T20:54:59.518Z,77.14
2022-08-05T20:57:45.038Z,76.79
2022-08-05T21:00:41.502Z,76.74
2022-08-05T21:03:06.889Z,76.64
2022-08-05T21:05:54.093Z,77.14
2022-08-05T21:08:33.093Z,76.70
2022-08-05T21:11:12.545Z,76.99
2022-08-05T21:13:48.252Z,76.85
2022-08-05T21:16:30.755Z,76.82
2022-08-05T21:19:03.603Z,76.68
2022-08-05T21:21:39.533Z,76.78
2022-08-05T21:24:15.609Z,76.96
2022-08-05T21:26:53.309Z,77.00
2022-08-05T21:29:32.236Z,76.62
2022-08-05T21:32:04.659Z,76.81
2022-08-05T21:34:35.396Z,76.71
2022-08-05T21:37:05.573Z,77.01
2022-08-05T21:39:34.458Z,76.86
2022-08-05T21:42:05.655Z,76.97
2022-08-05T21:44:34.564Z,77.01
2022-08-05T21:47:02.920Z,76.80
2022-08-05T21:49:56.841Z,76.83
2022-08-05T21:52:28.005Z,76.73
2022-08-05T21:55:06.376Z,77.35
2022-08-05T21:57:36.687Z,77.00
2022-08-05T22:00:13.647Z,76.69
2022-08-05T22:02:43.111Z,76.79
2022-08-05T22:05:13.627Z,76.91
2022-08-05T22:07:59.359Z,76.83
2022-08-05T22:10:30.912Z,77.00
2022-08-05T22:13:08.842Z,77.09
2022-08-05T22:16:02.383Z,76.93
2022-08-05T22:18:41.243Z,77.00
2022-08-05T22:21:19.385Z,77.29
2022-08-05T22:24:08.960Z,76.97
2022-08-05T22:26:59.869Z,76.96
2022-08-05T22:29:30.842Z,77.12
2022-08-05T22:32:02.797Z,77.60
2022-08-05T22:34:33.352Z,77.40
2022-08-05T22:37:03.900Z,77.38
2022-08-05T22:39:35.026Z,77.43
2022-08-05T22:42:12.476Z,77.63
2022-08-05T22:44:56.246Z,77.54
2022-08-05T22:47:30.654Z,77.68
2022-08-05T22:50:21.473Z,77.71
2022-08-05T22:52:53.878Z,77.87
2022-08-05T22:55:23.283Z,77.77
2022-08-05T22:57:53.502Z,77.83
2022-08-05T23:00:26.491Z,77.97
2022-08-05T23:02:56.893Z,77.95
2022-08-05T23:05:26.461Z,77.77
2022-08-05T23:07:55.350Z,77.71
2022-08-05T23:10:24.297Z,77.84
2022-08-05T23:12:55.761Z,77.74
2022-08-05T23:15:30.020Z,77.88
2022-08-05T23:18:06.035Z,78.07
2022-08-05T23:20:40.070Z,77.82
2022-08-05T23:23:11.090Z,77.81
2022-08-05T23:25:52.910Z,77.73
2022-08-05T23:28:28.667Z,77.43
2022-08-05T23:31:15.756Z,77.50
2022-08-05T23:34:04.853Z,77.42
2022-08-05T23:36:40.324Z,77.14
2022-08-05T23:39:17.471Z,76.87
2022-08-05T23:42:01.160Z,77.17
2022-08-05T23:44:31.689Z,76.60
2022-08-05T23:47:14.524Z,76.60
2022-08-05T23:49:47.716Z,76.44
2022-08-05T23:52:28.358Z,76.03
2022-08-05T23:55:22.649Z,76.09
2022-08-05T23:57:59.030Z,75.78
